sensor_id;sensor_type;location;lat;lon;timestamp;P1;durP1;ratioP1;P2;durP2;ratioP2
59571;SDS011;59406;45.602;11.904;2022-09-19T00:01:12;8.10;;;4.63;;
59571;SDS011;59406;45.602;11.904;2022-09-19T00:03:44;6.22;;;3.53;;
59571;SDS011;59406;45.602;11.904;2022-09-19T00:06:13;7.13;;;4.25;;
59571;SDS011;59406;45.602;11.904;2022-09-19T00:08:41;7.90;;;3.97;;
59571;SDS011;59406;45.602;11.904;2022-09-19T00:11:10;6.68;;;3.47;;
59571;SDS011;59406;45.602;11.904;2022-09-19T00:13:40;8.73;;;4.90;;
59571;SDS011;59406;45.602;11.904;2022-09-19T00:16:11;8.20;;;5.10;;
59571;SDS011;59406;45.602;11.904;2022-09-19T00:18:38;8.65;;;4.32;;
59571;SDS011;59406;45.602;11.904;2022-09-19T00:21:04;9.43;;;5.60;;
59571;SDS011;59406;45.602;11.904;2022-09-19T00:23:30;8.03;;;4.10;;
59571;SDS011;59406;45.602;11.904;2022-09-19T00:26:14;8.02;;;4.35;;
59571;SDS011;59406;45.602;11.904;2022-09-19T00:28:44;8.05;;;4.53;;
59571;SDS011;59406;45.602;11.904;2022-09-19T00:31:18;6.88;;;3.30;;
59571;SDS011;59406;45.602;11.904;2022-09-19T00:33:46;7.13;;;3.83;;
59571;SDS011;59406;45.602;11.904;2022-09-19T00:36:13;7.50;;;4.65;;
59571;SDS011;59406;45.602;11.904;2022-09-19T00:38:41;7.25;;;3.92;;
59571;SDS011;59406;45.602;11.904;2022-09-19T00:41:08;9.13;;;5.00;;
59571;SDS011;59406;45.602;11.904;2022-09-19T00:43:46;8.68;;;4.82;;
59571;SDS011;59406;45.602;11.904;2022-09-19T00:46:12;9.00;;;5.17;;
59571;SDS011;59406;45.602;11.904;2022-09-19T00:48:39;8.68;;;4.95;;
59571;SDS011;59406;45.602;11.904;2022-09-19T00:51:11;10.90;;;6.13;;
59571;SDS011;59406;45.602;11.904;2022-09-19T00:53:42;10.02;;;6.15;;
59571;SDS011;59406;45.602;11.904;2022-09-19T00:56:12;9.25;;;5.22;;
59571;SDS011;59406;45.602;11.904;2022-09-19T00:58:41;9.80;;;5.57;;
59571;SDS011;59406;45.602;11.904;2022-09-19T01:01:10;9.77;;;5.95;;
59571;SDS011;59406;45.602;11.904;2022-09-19T01:03:39;10.77;;;5.80;;
59571;SDS011;59406;45.602;11.904;2022-09-19T01:09:20;9.88;;;6.57;;
59571;SDS011;59406;45.602;11.904;2022-09-19T01:12:20;9.67;;;5.80;;
59571;SDS011;59406;45.602;11.904;2022-09-19T01:15:03;9.68;;;5.72;;
59571;SDS011;59406;45.602;11.904;2022-09-19T01:17:44;11.20;;;7.18;;
59571;SDS011;59406;45.602;11.904;2022-09-19T01:20:19;10.52;;;6.20;;
59571;SDS011;59406;45.602;11.904;2022-09-19T01:25:56;8.83;;;5.20;;
59571;SDS011;59406;45.602;11.904;2022-09-19T01:28:47;9.95;;;5.82;;
59571;SDS011;59406;45.602;11.904;2022-09-19T01:31:20;13.80;;;5.97;;
59571;SDS011;59406;45.602;11.904;2022-09-19T01:33:57;7.65;;;4.45;;
59571;SDS011;59406;45.602;11.904;2022-09-19T01:36:33;8.65;;;4.60;;
59571;SDS011;59406;45.602;11.904;2022-09-19T01:39:04;9.10;;;5.80;;
59571;SDS011;59406;45.602;11.904;2022-09-19T01:41:34;7.22;;;4.55;;
59571;SDS011;59406;45.602;11.904;2022-09-19T01:44:01;9.73;;;4.60;;
59571;SDS011;59406;45.602;11.904;2022-09-19T01:47:04;8.90;;;5.10;;
59571;SDS011;59406;45.602;11.904;2022-09-19T01:49:35;8.80;;;5.57;;
59571;SDS011;59406;45.602;11.904;2022-09-19T01:55:03;9.32;;;5.82;;
59571;SDS011;59406;45.602;11.904;2022-09-19T01:57:45;9.20;;;5.25;;
59571;SDS011;59406;45.602;11.904;2022-09-19T02:00:29;8.88;;;5.75;;
59571;SDS011;59406;45.602;11.904;2022-09-19T02:05:53;10.73;;;7.13;;
59571;SDS011;59406;45.602;11.904;2022-09-19T02:08:38;11.77;;;5.18;;
59571;SDS011;59406;45.602;11.904;2022-09-19T02:11:15;9.65;;;6.35;;
59571;SDS011;59406;45.602;11.904;2022-09-19T02:13:50;10.43;;;6.78;;
59571;SDS011;59406;45.602;11.904;2022-09-19T02:16:33;9.30;;;6.35;;
59571;SDS011;59406;45.602;11.904;2022-09-19T02:19:13;9.10;;;5.50;;
59571;SDS011;59406;45.602;11.904;2022-09-19T02:21:45;10.63;;;6.72;;
59571;SDS011;59406;45.602;11.904;2022-09-19T02:24:19;9.75;;;5.25;;
59571;SDS011;59406;45.602;11.904;2022-09-19T02:26:52;9.23;;;5.00;;
59571;SDS011;59406;45.602;11.904;2022-09-19T02:29:27;9.27;;;5.50;;
59571;SDS011;59406;45.602;11.904;2022-09-19T02:31:56;8.63;;;5.40;;
59571;SDS011;59406;45.602;11.904;2022-09-19T02:34:22;7.93;;;4.97;;
59571;SDS011;59406;45.602;11.904;2022-09-19T02:36:54;8.05;;;4.50;;
59571;SDS011;59406;45.602;11.904;2022-09-19T02:39:36;8.77;;;4.70;;
59571;SDS011;59406;45.602;11.904;2022-09-19T02:42:18;9.70;;;4.85;;
59571;SDS011;59406;45.602;11.904;2022-09-19T02:45:01;10.13;;;5.43;;
59571;SDS011;59406;45.602;11.904;2022-09-19T02:47:30;10.82;;;6.15;;
59571;SDS011;59406;45.602;11.904;2022-09-19T02:50:05;9.05;;;5.57;;
59571;SDS011;59406;45.602;11.904;2022-09-19T02:52:35;11.85;;;5.95;;
59571;SDS011;59406;45.602;11.904;2022-09-19T02:55:05;8.05;;;4.93;;
59571;SDS011;59406;45.602;11.904;2022-09-19T02:57:42;7.63;;;5.27;;
59571;SDS011;59406;45.602;11.904;2022-09-19T03:00:12;7.53;;;4.45;;
59571;SDS011;59406;45.602;11.904;2022-09-19T03:02:56;9.32;;;5.40;;
59571;SDS011;59406;45.602;11.904;2022-09-19T03:05:26;8.20;;;4.80;;
59571;SDS011;59406;45.602;11.904;2022-09-19T03:07:57;8.90;;;5.78;;
59571;SDS011;59406;45.602;11.904;2022-09-19T03:10:31;10.67;;;6.60;;
59571;SDS011;59406;45.602;11.904;2022-09-19T03:13:04;10.57;;;5.85;;
59571;SDS011;59406;45.602;11.904;2022-09-19T03:18:22;8.85;;;5.45;;
59571;SDS011;59406;45.602;11.904;2022-09-19T03:20:53;12.73;;;6.50;;
59571;SDS011;59406;45.602;11.904;2022-09-19T03:23:25;10.87;;;5.90;;
59571;SDS011;59406;45.602;11.904;2022-09-19T03:26:13;8.73;;;4.97;;
59571;SDS011;59406;45.602;11.904;2022-09-19T03:28:45;10.52;;;6.07;;
59571;SDS011;59406;45.602;11.904;2022-09-19T03:31:11;7.55;;;4.53;;
59571;SDS011;59406;45.602;11.904;2022-09-19T03:33:38;10.02;;;5.45;;
59571;SDS011;59406;45.602;11.904;2022-09-19T03:36:07;9.47;;;5.33;;
59571;SDS011;59406;45.602;11.904;2022-09-19T03:38:36;9.02;;;5.43;;
59571;SDS011;59406;45.602;11.904;2022-09-19T03:41:10;9.68;;;6.35;;
59571;SDS011;59406;45.602;11.904;2022-09-19T03:43:37;8.13;;;4.57;;
59571;SDS011;59406;45.602;11.904;2022-09-19T03:46:11;6.53;;;3.28;;
59571;SDS011;59406;45.602;11.904;2022-09-19T03:48:39;9.70;;;5.40;;
59571;SDS011;59406;45.602;11.904;2022-09-19T03:51:06;7.00;;;4.18;;
59571;SDS011;59406;45.602;11.904;2022-09-19T03:53:33;7.07;;;3.67;;
59571;SDS011;59406;45.602;11.904;2022-09-19T03:55:59;8.35;;;4.97;;
59571;SDS011;59406;45.602;11.904;2022-09-19T03:58:26;8.10;;;3.95;;
59571;SDS011;59406;45.602;11.904;2022-09-19T04:00:52;8.97;;;5.10;;
59571;SDS011;59406;45.602;11.904;2022-09-19T04:03:18;6.85;;;3.42;;
59571;SDS011;59406;45.602;11.904;2022-09-19T04:05:48;8.88;;;4.93;;
59571;SDS011;59406;45.602;11.904;2022-09-19T04:08:14;7.68;;;3.60;;
59571;SDS011;59406;45.602;11.904;2022-09-19T04:10:40;7.03;;;3.23;;
59571;SDS011;59406;45.602;11.904;2022-09-19T04:13:08;8.55;;;3.22;;
59571;SDS011;59406;45.602;11.904;2022-09-19T04:15:35;7.03;;;4.03;;
59571;SDS011;59406;45.602;11.904;2022-09-19T04:18:02;7.90;;;3.60;;
59571;SDS011;59406;45.602;11.904;2022-09-19T04:20:31;5.28;;;2.97;;
59571;SDS011;59406;45.602;11.904;2022-09-19T04:22:59;6.60;;;3.30;;
59571;SDS011;59406;45.602;11.904;2022-09-19T04:25:29;6.65;;;3.00;;
59571;SDS011;59406;45.602;11.904;2022-09-19T04:28:01;6.65;;;3.00;;
59571;SDS011;59406;45.602;11.904;2022-09-19T04:30:30;4.82;;;2.38;;
59571;SDS011;59406;45.602;11.904;2022-09-19T04:32:57;6.07;;;3.05;;
59571;SDS011;59406;45.602;11.904;2022-09-19T04:35:23;6.87;;;3.67;;
59571;SDS011;59406;45.602;11.904;2022-09-19T04:37:49;7.45;;;3.85;;
59571;SDS011;59406;45.602;11.904;2022-09-19T04:40:15;4.85;;;2.05;;
59571;SDS011;59406;45.602;11.904;2022-09-19T04:42:42;6.88;;;3.22;;
59571;SDS011;59406;45.602;11.904;2022-09-19T04:45:08;8.43;;;3.33;;
59571;SDS011;59406;45.602;11.904;2022-09-19T04:47:35;6.20;;;2.60;;
59571;SDS011;59406;45.602;11.904;2022-09-19T04:50:02;6.07;;;2.80;;
59571;SDS011;59406;45.602;11.904;2022-09-19T04:52:33;6.63;;;2.60;;
59571;SDS011;59406;45.602;11.904;2022-09-19T04:55:00;8.00;;;2.50;;
59571;SDS011;59406;45.602;11.904;2022-09-19T04:57:26;6.10;;;2.87;;
59571;SDS011;59406;45.602;11.904;2022-09-19T04:59:52;6.05;;;2.55;;
59571;SDS011;59406;45.602;11.904;2022-09-19T05:02:21;7.55;;;3.25;;
59571;SDS011;59406;45.602;11.904;2022-09-19T05:04:47;7.25;;;3.83;;
59571;SDS011;59406;45.602;11.904;2022-09-19T05:07:13;7.13;;;3.17;;
59571;SDS011;59406;45.602;11.904;2022-09-19T05:09:39;5.63;;;2.60;;
59571;SDS011;59406;45.602;11.904;2022-09-19T05:12:07;8.13;;;2.90;;
59571;SDS011;59406;45.602;11.904;2022-09-19T05:14:35;5.00;;;2.50;;
59571;SDS011;59406;45.602;11.904;2022-09-19T05:17:01;7.10;;;2.75;;
59571;SDS011;59406;45.602;11.904;2022-09-19T05:19:27;7.50;;;2.70;;
59571;SDS011;59406;45.602;11.904;2022-09-19T05:21:53;5.47;;;2.60;;
59571;SDS011;59406;45.602;11.904;2022-09-19T05:24:19;9.55;;;3.50;;
59571;SDS011;59406;45.602;11.904;2022-09-19T05:26:46;6.10;;;2.78;;
59571;SDS011;59406;45.602;11.904;2022-09-19T05:29:12;6.55;;;3.28;;
59571;SDS011;59406;45.602;11.904;2022-09-19T05:31:39;5.53;;;2.90;;
59571;SDS011;59406;45.602;11.904;2022-09-19T05:34:06;6.17;;;2.87;;
59571;SDS011;59406;45.602;11.904;2022-09-19T05:36:35;6.10;;;2.60;;
59571;SDS011;59406;45.602;11.904;2022-09-19T05:39:01;5.40;;;2.45;;
59571;SDS011;59406;45.602;11.904;2022-09-19T05:41:27;8.38;;;3.08;;
59571;SDS011;59406;45.602;11.904;2022-09-19T05:43:53;6.37;;;3.10;;
59571;SDS011;59406;45.602;11.904;2022-09-19T05:46:19;7.47;;;2.38;;
59571;SDS011;59406;45.602;11.904;2022-09-19T05:48:48;9.10;;;3.03;;
59571;SDS011;59406;45.602;11.904;2022-09-19T05:51:14;7.28;;;2.78;;
59571;SDS011;59406;45.602;11.904;2022-09-19T05:53:40;5.93;;;2.30;;
59571;SDS011;59406;45.602;11.904;2022-09-19T05:56:19;5.90;;;2.67;;
59571;SDS011;59406;45.602;11.904;2022-09-19T05:58:45;5.88;;;2.33;;
59571;SDS011;59406;45.602;11.904;2022-09-19T06:01:14;7.25;;;4.00;;
59571;SDS011;59406;45.602;11.904;2022-09-19T06:03:40;12.60;;;11.30;;
59571;SDS011;59406;45.602;11.904;2022-09-19T06:06:08;7.20;;;3.13;;
59571;SDS011;59406;45.602;11.904;2022-09-19T06:08:37;6.37;;;2.93;;
59571;SDS011;59406;45.602;11.904;2022-09-19T06:11:04;5.88;;;2.38;;
59571;SDS011;59406;45.602;11.904;2022-09-19T06:13:30;5.05;;;2.38;;
59571;SDS011;59406;45.602;11.904;2022-09-19T06:16:15;5.28;;;2.70;;
59571;SDS011;59406;45.602;11.904;2022-09-19T06:18:43;6.65;;;2.70;;
59571;SDS011;59406;45.602;11.904;2022-09-19T06:21:09;7.03;;;2.40;;
59571;SDS011;59406;45.602;11.904;2022-09-19T06:23:38;5.50;;;2.35;;
59571;SDS011;59406;45.602;11.904;2022-09-19T06:26:05;8.40;;;3.33;;
59571;SDS011;59406;45.602;11.904;2022-09-19T06:28:31;6.05;;;2.63;;
59571;SDS011;59406;45.602;11.904;2022-09-19T06:31:00;7.17;;;2.57;;
59571;SDS011;59406;45.602;11.904;2022-09-19T06:33:31;8.48;;;2.45;;
59571;SDS011;59406;45.602;11.904;2022-09-19T06:35:58;5.72;;;1.92;;
59571;SDS011;59406;45.602;11.904;2022-09-19T06:38:26;4.88;;;1.88;;
59571;SDS011;59406;45.602;11.904;2022-09-19T06:40:52;5.53;;;3.00;;
59571;SDS011;59406;45.602;11.904;2022-09-19T06:43:18;13.30;;;8.00;;
59571;SDS011;59406;45.602;11.904;2022-09-19T06:45:44;8.07;;;5.15;;
59571;SDS011;59406;45.602;11.904;2022-09-19T06:48:12;5.97;;;3.85;;
59571;SDS011;59406;45.602;11.904;2022-09-19T06:50:38;8.63;;;5.18;;
59571;SDS011;59406;45.602;11.904;2022-09-19T06:53:08;7.03;;;3.10;;
59571;SDS011;59406;45.602;11.904;2022-09-19T06:55:34;6.53;;;2.67;;
59571;SDS011;59406;45.602;11.904;2022-09-19T06:58:01;6.25;;;2.13;;
59571;SDS011;59406;45.602;11.904;2022-09-19T07:00:30;4.45;;;1.70;;
59571;SDS011;59406;45.602;11.904;2022-09-19T07:02:59;5.70;;;1.90;;
59571;SDS011;59406;45.602;11.904;2022-09-19T07:05:27;4.50;;;1.77;;
59571;SDS011;59406;45.602;11.904;2022-09-19T07:07:56;8.45;;;4.10;;
59571;SDS011;59406;45.602;11.904;2022-09-19T07:10:22;5.20;;;2.63;;
59571;SDS011;59406;45.602;11.904;2022-09-19T07:12:55;4.65;;;2.13;;
59571;SDS011;59406;45.602;11.904;2022-09-19T07:15:24;5.10;;;1.70;;
59571;SDS011;59406;45.602;11.904;2022-09-19T07:17:56;5.35;;;1.83;;
59571;SDS011;59406;45.602;11.904;2022-09-19T07:20:22;4.72;;;1.65;;
59571;SDS011;59406;45.602;11.904;2022-09-19T07:23:03;4.18;;;1.50;;
59571;SDS011;59406;45.602;11.904;2022-09-19T07:25:47;6.20;;;2.15;;
59571;SDS011;59406;45.602;11.904;2022-09-19T07:28:14;5.67;;;1.57;;
59571;SDS011;59406;45.602;11.904;2022-09-19T07:30:43;5.18;;;1.75;;
59571;SDS011;59406;45.602;11.904;2022-09-19T07:33:12;5.63;;;1.65;;
59571;SDS011;59406;45.602;11.904;2022-09-19T07:35:39;5.72;;;2.15;;
59571;SDS011;59406;45.602;11.904;2022-09-19T07:38:08;7.97;;;3.97;;
59571;SDS011;59406;45.602;11.904;2022-09-19T07:40:39;14.80;;;8.23;;
59571;SDS011;59406;45.602;11.904;2022-09-19T07:43:06;16.02;;;8.25;;
59571;SDS011;59406;45.602;11.904;2022-09-19T07:45:34;11.30;;;6.13;;
59571;SDS011;59406;45.602;11.904;2022-09-19T07:48:02;9.70;;;4.00;;
59571;SDS011;59406;45.602;11.904;2022-09-19T07:50:29;5.90;;;2.50;;
59571;SDS011;59406;45.602;11.904;2022-09-19T07:52:59;5.33;;;2.00;;
59571;SDS011;59406;45.602;11.904;2022-09-19T07:55:28;4.75;;;1.90;;
59571;SDS011;59406;45.602;11.904;2022-09-19T07:57:55;5.63;;;2.00;;
59571;SDS011;59406;45.602;11.904;2022-09-19T08:00:23;6.70;;;2.50;;
59571;SDS011;59406;45.602;11.904;2022-09-19T08:02:54;9.32;;;3.22;;
59571;SDS011;59406;45.602;11.904;2022-09-19T08:05:21;7.40;;;3.93;;
59571;SDS011;59406;45.602;11.904;2022-09-19T08:07:48;7.82;;;3.92;;
59571;SDS011;59406;45.602;11.904;2022-09-19T08:10:14;9.02;;;4.32;;
59571;SDS011;59406;45.602;11.904;2022-09-19T08:12:44;6.68;;;3.30;;
59571;SDS011;59406;45.602;11.904;2022-09-19T08:15:13;6.00;;;2.92;;
59571;SDS011;59406;45.602;11.904;2022-09-19T08:17:41;6.23;;;2.97;;
59571;SDS011;59406;45.602;11.904;2022-09-19T08:20:09;6.20;;;3.20;;
59571;SDS011;59406;45.602;11.904;2022-09-19T08:22:35;6.30;;;2.90;;
59571;SDS011;59406;45.602;11.904;2022-09-19T08:25:01;6.13;;;2.40;;
59571;SDS011;59406;45.602;11.904;2022-09-19T08:27:27;6.53;;;2.20;;
59571;SDS011;59406;45.602;11.904;2022-09-19T08:29:52;5.55;;;2.20;;
59571;SDS011;59406;45.602;11.904;2022-09-19T08:32:24;6.00;;;2.58;;
59571;SDS011;59406;45.602;11.904;2022-09-19T08:34:51;6.63;;;2.05;;
59571;SDS011;59406;45.602;11.904;2022-09-19T08:37:19;6.63;;;2.30;;
59571;SDS011;59406;45.602;11.904;2022-09-19T08:39:45;5.03;;;1.85;;
59571;SDS011;59406;45.602;11.904;2022-09-19T08:42:32;4.93;;;2.22;;
59571;SDS011;59406;45.602;11.904;2022-09-19T08:48:12;5.72;;;1.70;;
59571;SDS011;59406;45.602;11.904;2022-09-19T08:50:49;5.07;;;1.50;;
59571;SDS011;59406;45.602;11.904;2022-09-19T08:53:31;4.32;;;2.00;;
59571;SDS011;59406;45.602;11.904;2022-09-19T08:56:00;6.57;;;2.08;;
59571;SDS011;59406;45.602;11.904;2022-09-19T08:58:27;4.43;;;1.50;;
59571;SDS011;59406;45.602;11.904;2022-09-19T09:00:56;4.57;;;2.05;;
59571;SDS011;59406;45.602;11.904;2022-09-19T09:03:24;6.23;;;1.87;;
59571;SDS011;59406;45.602;11.904;2022-09-19T09:11:42;5.53;;;1.75;;
59571;SDS011;59406;45.602;11.904;2022-09-19T09:20:17;4.13;;;1.77;;
59571;SDS011;59406;45.602;11.904;2022-09-19T09:23:15;5.10;;;2.42;;
59571;SDS011;59406;45.602;11.904;2022-09-19T09:26:02;6.18;;;2.30;;
59571;SDS011;59406;45.602;11.904;2022-09-19T09:31:31;4.63;;;1.90;;
59571;SDS011;59406;45.602;11.904;2022-09-19T09:34:05;4.82;;;2.17;;
59571;SDS011;59406;45.602;11.904;2022-09-19T09:36:49;4.90;;;1.90;;
59571;SDS011;59406;45.602;11.904;2022-09-19T09:39:38;5.53;;;1.92;;
59571;SDS011;59406;45.602;11.904;2022-09-19T09:42:25;5.43;;;2.05;;
59571;SDS011;59406;45.602;11.904;2022-09-19T09:45:17;4.83;;;2.10;;
59571;SDS011;59406;45.602;11.904;2022-09-19T09:48:11;4.60;;;1.73;;
59571;SDS011;59406;45.602;11.904;2022-09-19T09:57:30;5.63;;;2.20;;
59571;SDS011;59406;45.602;11.904;2022-09-19T10:02:38;6.07;;;2.40;;
59571;SDS011;59406;45.602;11.904;2022-09-19T10:05:44;4.97;;;2.40;;
59571;SDS011;59406;45.602;11.904;2022-09-19T10:08:24;6.10;;;2.53;;
59571;SDS011;59406;45.602;11.904;2022-09-19T10:11:21;7.40;;;2.30;;
59571;SDS011;59406;45.602;11.904;2022-09-19T10:14:01;4.07;;;1.90;;
59571;SDS011;59406;45.602;11.904;2022-09-19T10:16:31;5.13;;;2.25;;
59571;SDS011;59406;45.602;11.904;2022-09-19T10:19:00;5.93;;;2.30;;
59571;SDS011;59406;45.602;11.904;2022-09-19T10:21:39;4.40;;;2.08;;
59571;SDS011;59406;45.602;11.904;2022-09-19T10:27:16;4.57;;;2.47;;
59571;SDS011;59406;45.602;11.904;2022-09-19T10:29:56;3.88;;;1.85;;
59571;SDS011;59406;45.602;11.904;2022-09-19T10:32:26;3.67;;;1.88;;
59571;SDS011;59406;45.602;11.904;2022-09-19T10:35:18;4.97;;;1.90;;
59571;SDS011;59406;45.602;11.904;2022-09-19T10:38:11;4.68;;;2.20;;
59571;SDS011;59406;45.602;11.904;2022-09-19T10:40:57;4.20;;;2.00;;
59571;SDS011;59406;45.602;11.904;2022-09-19T10:46:05;3.20;;;1.50;;
59571;SDS011;59406;45.602;11.904;2022-09-19T10:51:07;3.38;;;1.52;;
59571;SDS011;59406;45.602;11.904;2022-09-19T10:53:39;4.07;;;1.60;;
59571;SDS011;59406;45.602;11.904;2022-09-19T10:56:17;4.78;;;1.88;;
59571;SDS011;59406;45.602;11.904;2022-09-19T11:01:35;4.63;;;1.80;;
59571;SDS011;59406;45.602;11.904;2022-09-19T11:04:04;4.47;;;1.63;;
59571;SDS011;59406;45.602;11.904;2022-09-19T11:06:40;3.43;;;1.67;;
59571;SDS011;59406;45.602;11.904;2022-09-19T11:09:31;4.57;;;1.65;;
59571;SDS011;59406;45.602;11.904;2022-09-19T11:12:16;4.25;;;2.03;;
59571;SDS011;59406;45.602;11.904;2022-09-19T11:14:48;4.22;;;1.85;;
59571;SDS011;59406;45.602;11.904;2022-09-19T11:17:19;3.08;;;1.77;;
59571;SDS011;59406;45.602;11.904;2022-09-19T11:31:05;3.22;;;1.95;;
59571;SDS011;59406;45.602;11.904;2022-09-19T11:33:42;3.77;;;2.10;;
59571;SDS011;59406;45.602;11.904;2022-09-19T11:36:19;3.90;;;2.45;;
59571;SDS011;59406;45.602;11.904;2022-09-19T11:39:15;4.43;;;2.33;;
59571;SDS011;59406;45.602;11.904;2022-09-19T11:44:40;4.65;;;2.65;;
59571;SDS011;59406;45.602;11.904;2022-09-19T11:49:51;4.38;;;2.67;;
59571;SDS011;59406;45.602;11.904;2022-09-19T11:55:09;4.47;;;2.47;;
59571;SDS011;59406;45.602;11.904;2022-09-19T12:00:22;3.83;;;1.77;;
59571;SDS011;59406;45.602;11.904;2022-09-19T12:02:55;3.28;;;1.60;;
59571;SDS011;59406;45.602;11.904;2022-09-19T12:08:29;2.90;;;1.40;;
59571;SDS011;59406;45.602;11.904;2022-09-19T12:10:59;3.20;;;1.50;;
59571;SDS011;59406;45.602;11.904;2022-09-19T12:13:48;3.83;;;1.40;;
59571;SDS011;59406;45.602;11.904;2022-09-19T12:16:33;3.50;;;2.05;;
59571;SDS011;59406;45.602;11.904;2022-09-19T12:19:07;4.30;;;1.70;;
59571;SDS011;59406;45.602;11.904;2022-09-19T12:21:44;3.33;;;1.98;;
59571;SDS011;59406;45.602;11.904;2022-09-19T12:24:25;3.90;;;1.70;;
59571;SDS011;59406;45.602;11.904;2022-09-19T12:43:34;4.18;;;2.03;;
59571;SDS011;59406;45.602;11.904;2022-09-19T12:51:17;4.07;;;1.90;;
59571;SDS011;59406;45.602;11.904;2022-09-19T12:53:54;4.18;;;1.90;;
59571;SDS011;59406;45.602;11.904;2022-09-19T12:56:35;3.10;;;1.98;;
59571;SDS011;59406;45.602;11.904;2022-09-19T13:04:25;3.53;;;2.37;;
59571;SDS011;59406;45.602;11.904;2022-09-19T13:07:09;4.00;;;2.42;;
59571;SDS011;59406;45.602;11.904;2022-09-19T13:12:50;3.60;;;2.42;;
59571;SDS011;59406;45.602;11.904;2022-09-19T13:15:35;3.70;;;2.15;;
59571;SDS011;59406;45.602;11.904;2022-09-19T13:18:14;3.53;;;2.00;;
59571;SDS011;59406;45.602;11.904;2022-09-19T13:21:00;3.70;;;1.75;;
59571;SDS011;59406;45.602;11.904;2022-09-19T13:23:49;3.60;;;2.05;;
59571;SDS011;59406;45.602;11.904;2022-09-19T13:26:22;5.35;;;2.30;;
59571;SDS011;59406;45.602;11.904;2022-09-19T13:28:58;3.40;;;1.88;;
59571;SDS011;59406;45.602;11.904;2022-09-19T13:31:32;3.13;;;2.13;;
59571;SDS011;59406;45.602;11.904;2022-09-19T13:43:01;4.07;;;2.33;;
59571;SDS011;59406;45.602;11.904;2022-09-19T13:48:11;4.65;;;1.83;;
59571;SDS011;59406;45.602;11.904;2022-09-19T13:50:53;3.28;;;1.80;;
59571;SDS011;59406;45.602;11.904;2022-09-19T13:53:39;4.07;;;2.03;;
59571;SDS011;59406;45.602;11.904;2022-09-19T13:56:27;3.15;;;1.90;;
59571;SDS011;59406;45.602;11.904;2022-09-19T14:01:52;3.20;;;1.92;;
59571;SDS011;59406;45.602;11.904;2022-09-19T14:10:05;3.45;;;2.00;;
59571;SDS011;59406;45.602;11.904;2022-09-19T14:15:02;3.42;;;2.00;;
59571;SDS011;59406;45.602;11.904;2022-09-19T14:23:23;3.08;;;1.60;;
59571;SDS011;59406;45.602;11.904;2022-09-19T14:26:19;4.13;;;1.70;;
59571;SDS011;59406;45.602;11.904;2022-09-19T14:40:07;2.80;;;1.10;;
59571;SDS011;59406;45.602;11.904;2022-09-19T14:46:10;3.65;;;1.13;;
59571;SDS011;59406;45.602;11.904;2022-09-19T14:56:56;3.08;;;1.30;;
59571;SDS011;59406;45.602;11.904;2022-09-19T14:59:31;3.67;;;1.30;;
59571;SDS011;59406;45.602;11.904;2022-09-19T15:02:45;3.05;;;1.52;;
59571;SDS011;59406;45.602;11.904;2022-09-19T15:05:05;2.92;;;1.30;;
59571;SDS011;59406;45.602;11.904;2022-09-19T15:07:41;2.80;;;1.10;;
59571;SDS011;59406;45.602;11.904;2022-09-19T15:13:44;4.90;;;3.28;;
59571;SDS011;59406;45.602;11.904;2022-09-19T15:15:53;2.75;;;1.20;;
59571;SDS011;59406;45.602;11.904;2022-09-19T15:18:29;3.58;;;1.25;;
59571;SDS011;59406;45.602;11.904;2022-09-19T15:21:01;5.07;;;1.80;;
59571;SDS011;59406;45.602;11.904;2022-09-19T15:23:32;4.18;;;1.80;;
59571;SDS011;59406;45.602;11.904;2022-09-19T15:26:05;4.45;;;1.45;;
59571;SDS011;59406;45.602;11.904;2022-09-19T15:28:36;3.63;;;1.30;;
59571;SDS011;59406;45.602;11.904;2022-09-19T15:31:24;2.92;;;1.20;;
59571;SDS011;59406;45.602;11.904;2022-09-19T15:33:54;4.70;;;1.27;;
59571;SDS011;59406;45.602;11.904;2022-09-19T15:36:29;6.85;;;1.00;;
59571;SDS011;59406;45.602;11.904;2022-09-19T15:39:02;7.10;;;1.17;;
59571;SDS011;59406;45.602;11.904;2022-09-19T15:41:30;3.47;;;1.13;;
59571;SDS011;59406;45.602;11.904;2022-09-19T15:43:58;5.30;;;1.25;;
59571;SDS011;59406;45.602;11.904;2022-09-19T15:51:31;3.05;;;1.13;;
59571;SDS011;59406;45.602;11.904;2022-09-19T15:54:00;3.25;;;0.88;;
59571;SDS011;59406;45.602;11.904;2022-09-19T15:56:28;3.40;;;1.15;;
59571;SDS011;59406;45.602;11.904;2022-09-19T15:59:11;3.27;;;0.90;;
59571;SDS011;59406;45.602;11.904;2022-09-19T16:01:48;3.45;;;1.00;;
59571;SDS011;59406;45.602;11.904;2022-09-19T16:04:23;3.33;;;0.65;;
59571;SDS011;59406;45.602;11.904;2022-09-19T16:09:40;3.40;;;0.90;;
59571;SDS011;59406;45.602;11.904;2022-09-19T16:14:59;3.60;;;0.80;;
59571;SDS011;59406;45.602;11.904;2022-09-19T16:18:13;4.07;;;0.95;;
59571;SDS011;59406;45.602;11.904;2022-09-19T16:23:00;2.72;;;0.60;;
59571;SDS011;59406;45.602;11.904;2022-09-19T16:25:42;3.60;;;0.70;;
59571;SDS011;59406;45.602;11.904;2022-09-19T16:28:12;3.05;;;0.60;;
59571;SDS011;59406;45.602;11.904;2022-09-19T16:31:42;3.13;;;0.52;;
59571;SDS011;59406;45.602;11.904;2022-09-19T16:33:52;1.85;;;0.63;;
59571;SDS011;59406;45.602;11.904;2022-09-19T16:36:30;3.72;;;0.85;;
59571;SDS011;59406;45.602;11.904;2022-09-19T16:41:24;3.45;;;0.57;;
59571;SDS011;59406;45.602;11.904;2022-09-19T16:46:33;3.03;;;0.63;;
59571;SDS011;59406;45.602;11.904;2022-09-19T16:48:59;2.80;;;0.52;;
59571;SDS011;59406;45.602;11.904;2022-09-19T16:51:25;4.17;;;0.50;;
59571;SDS011;59406;45.602;11.904;2022-09-19T16:53:53;3.33;;;0.50;;
59571;SDS011;59406;45.602;11.904;2022-09-19T16:56:21;3.42;;;0.50;;
59571;SDS011;59406;45.602;11.904;2022-09-19T16:58:47;1.98;;;0.30;;
59571;SDS011;59406;45.602;11.904;2022-09-19T17:01:13;2.50;;;0.40;;
59571;SDS011;59406;45.602;11.904;2022-09-19T17:03:39;2.42;;;0.50;;
59571;SDS011;59406;45.602;11.904;2022-09-19T17:06:07;3.10;;;0.43;;
59571;SDS011;59406;45.602;11.904;2022-09-19T17:08:36;3.97;;;0.43;;
59571;SDS011;59406;45.602;11.904;2022-09-19T17:11:03;2.47;;;0.47;;
59571;SDS011;59406;45.602;11.904;2022-09-19T17:13:30;3.77;;;0.47;;
59571;SDS011;59406;45.602;11.904;2022-09-19T17:15:57;2.00;;;0.30;;
59571;SDS011;59406;45.602;11.904;2022-09-19T17:18:29;2.65;;;0.47;;
59571;SDS011;59406;45.602;11.904;2022-09-19T17:20:57;2.80;;;0.45;;
59571;SDS011;59406;45.602;11.904;2022-09-19T17:23:25;4.20;;;0.87;;
59571;SDS011;59406;45.602;11.904;2022-09-19T17:25:54;3.08;;;0.60;;
59571;SDS011;59406;45.602;11.904;2022-09-19T17:28:22;2.90;;;0.35;;
59571;SDS011;59406;45.602;11.904;2022-09-19T17:30:50;3.95;;;0.80;;
59571;SDS011;59406;45.602;11.904;2022-09-19T17:33:17;3.78;;;0.93;;
59571;SDS011;59406;45.602;11.904;2022-09-19T17:35:45;4.10;;;0.83;;
59571;SDS011;59406;45.602;11.904;2022-09-19T17:38:12;3.38;;;0.75;;
59571;SDS011;59406;45.602;11.904;2022-09-19T17:40:39;4.38;;;0.75;;
59571;SDS011;59406;45.602;11.904;2022-09-19T17:43:14;3.28;;;0.77;;
59571;SDS011;59406;45.602;11.904;2022-09-19T17:45:42;3.42;;;0.60;;
59571;SDS011;59406;45.602;11.904;2022-09-19T17:48:10;4.70;;;1.30;;
59571;SDS011;59406;45.602;11.904;2022-09-19T17:50:38;3.20;;;0.63;;
59571;SDS011;59406;45.602;11.904;2022-09-19T17:53:08;3.45;;;0.75;;
59571;SDS011;59406;45.602;11.904;2022-09-19T17:55:35;3.50;;;0.90;;
59571;SDS011;59406;45.602;11.904;2022-09-19T17:58:03;3.70;;;0.80;;
59571;SDS011;59406;45.602;11.904;2022-09-19T18:00:30;4.93;;;0.80;;
59571;SDS011;59406;45.602;11.904;2022-09-19T18:02:57;3.75;;;0.82;;
59571;SDS011;59406;45.602;11.904;2022-09-19T18:05:41;3.05;;;0.50;;